sensor_id;sensor_type;location;lat;lon;timestamp;P1;durP1;ratioP1;P2;durP2;ratioP2
33453;SDS011;39400;49.744;7.012;2022-12-07T00:03:39;15.82;;;8.70;;
33453;SDS011;39400;49.744;7.012;2022-12-07T00:06:06;16.13;;;9.80;;
33453;SDS011;39400;49.744;7.012;2022-12-07T00:08:32;15.10;;;8.40;;
33453;SDS011;39400;49.744;7.012;2022-12-07T00:11:02;15.48;;;8.50;;
33453;SDS011;39400;49.744;7.012;2022-12-07T00:13:29;15.90;;;8.55;;
33453;SDS011;39400;49.744;7.012;2022-12-07T00:15:55;18.30;;;10.40;;
33453;SDS011;39400;49.744;7.012;2022-12-07T00:18:20;19.65;;;10.68;;
33453;SDS011;39400;49.744;7.012;2022-12-07T00:20:46;19.25;;;10.05;;
33453;SDS011;39400;49.744;7.012;2022-12-07T00:23:11;13.82;;;7.97;;
33453;SDS011;39400;49.744;7.012;2022-12-07T00:25:36;15.00;;;8.18;;
33453;SDS011;39400;49.744;7.012;2022-12-07T00:28:02;16.88;;;9.30;;
33453;SDS011;39400;49.744;7.012;2022-12-07T00:30:27;15.18;;;8.38;;
33453;SDS011;39400;49.744;7.012;2022-12-07T00:32:53;17.98;;;8.85;;
33453;SDS011;39400;49.744;7.012;2022-12-07T00:35:18;15.05;;;8.10;;
33453;SDS011;39400;49.744;7.012;2022-12-07T00:37:43;17.17;;;9.52;;
33453;SDS011;39400;49.744;7.012;2022-12-07T00:40:09;15.63;;;8.45;;
33453;SDS011;39400;49.744;7.012;2022-12-07T00:42:34;14.85;;;8.48;;
33453;SDS011;39400;49.744;7.012;2022-12-07T00:45:00;16.95;;;8.90;;
33453;SDS011;39400;49.744;7.012;2022-12-07T00:47:25;16.40;;;8.98;;
33453;SDS011;39400;49.744;7.012;2022-12-07T00:49:50;17.42;;;8.88;;
33453;SDS011;39400;49.744;7.012;2022-12-07T00:52:16;16.60;;;9.23;;
33453;SDS011;39400;49.744;7.012;2022-12-07T00:54:41;18.38;;;9.35;;
33453;SDS011;39400;49.744;7.012;2022-12-07T00:57:06;16.25;;;8.27;;
33453;SDS011;39400;49.744;7.012;2022-12-07T00:59:32;17.42;;;8.20;;
33453;SDS011;39400;49.744;7.012;2022-12-07T01:01:57;16.40;;;8.50;;
33453;SDS011;39400;49.744;7.012;2022-12-07T01:04:22;17.05;;;9.68;;
33453;SDS011;39400;49.744;7.012;2022-12-07T01:06:48;21.48;;;8.75;;
33453;SDS011;39400;49.744;7.012;2022-12-07T01:09:13;15.85;;;8.73;;
33453;SDS011;39400;49.744;7.012;2022-12-07T01:11:38;15.23;;;8.18;;
33453;SDS011;39400;49.744;7.012;2022-12-07T01:14:04;15.32;;;8.98;;
33453;SDS011;39400;49.744;7.012;2022-12-07T01:16:30;17.02;;;9.15;;
33453;SDS011;39400;49.744;7.012;2022-12-07T01:18:57;15.82;;;8.80;;
33453;SDS011;39400;49.744;7.012;2022-12-07T01:21:27;14.07;;;7.95;;
33453;SDS011;39400;49.744;7.012;2022-12-07T01:23:54;15.88;;;8.80;;
33453;SDS011;39400;49.744;7.012;2022-12-07T01:26:20;15.80;;;9.32;;
33453;SDS011;39400;49.744;7.012;2022-12-07T01:28:47;15.40;;;8.88;;
33453;SDS011;39400;49.744;7.012;2022-12-07T01:31:14;15.23;;;9.07;;
33453;SDS011;39400;49.744;7.012;2022-12-07T01:33:45;15.52;;;8.13;;
33453;SDS011;39400;49.744;7.012;2022-12-07T01:36:14;15.70;;;8.73;;
33453;SDS011;39400;49.744;7.012;2022-12-07T01:38:40;15.90;;;8.52;;
33453;SDS011;39400;49.744;7.012;2022-12-07T01:41:06;15.32;;;8.57;;
33453;SDS011;39400;49.744;7.012;2022-12-07T01:43:32;21.50;;;9.20;;
33453;SDS011;39400;49.744;7.012;2022-12-07T01:45:59;17.63;;;8.63;;
33453;SDS011;39400;49.744;7.012;2022-12-07T01:48:26;16.70;;;9.10;;
33453;SDS011;39400;49.744;7.012;2022-12-07T01:50:54;15.93;;;8.75;;
33453;SDS011;39400;49.744;7.012;2022-12-07T01:53:26;16.25;;;8.98;;
33453;SDS011;39400;49.744;7.012;2022-12-07T01:58:21;17.02;;;9.23;;
33453;SDS011;39400;49.744;7.012;2022-12-07T02:00:47;14.52;;;8.57;;
33453;SDS011;39400;49.744;7.012;2022-12-07T02:05:47;16.45;;;8.73;;
33453;SDS011;39400;49.744;7.012;2022-12-07T02:08:14;17.50;;;9.65;;
33453;SDS011;39400;49.744;7.012;2022-12-07T02:10:39;15.32;;;9.05;;
33453;SDS011;39400;49.744;7.012;2022-12-07T02:19:28;17.30;;;9.75;;
33453;SDS011;39400;49.744;7.012;2022-12-07T02:22:26;19.75;;;9.80;;
33453;SDS011;39400;49.744;7.012;2022-12-07T02:28:12;19.92;;;10.68;;
33453;SDS011;39400;49.744;7.012;2022-12-07T02:31:09;18.55;;;9.32;;
33453;SDS011;39400;49.744;7.012;2022-12-07T02:33:41;23.35;;;12.95;;
33453;SDS011;39400;49.744;7.012;2022-12-07T02:36:28;17.48;;;10.40;;
33453;SDS011;39400;49.744;7.012;2022-12-07T02:39:01;16.05;;;9.45;;
33453;SDS011;39400;49.744;7.012;2022-12-07T02:41:37;24.85;;;12.35;;
33453;SDS011;39400;49.744;7.012;2022-12-07T02:44:09;24.50;;;13.02;;
33453;SDS011;39400;49.744;7.012;2022-12-07T02:46:40;25.15;;;13.38;;
33453;SDS011;39400;49.744;7.012;2022-12-07T02:49:09;24.48;;;12.52;;
33453;SDS011;39400;49.744;7.012;2022-12-07T02:51:38;25.63;;;14.63;;
33453;SDS011;39400;49.744;7.012;2022-12-07T02:54:12;24.63;;;14.07;;
33453;SDS011;39400;49.744;7.012;2022-12-07T02:59:52;29.73;;;14.70;;
33453;SDS011;39400;49.744;7.012;2022-12-07T03:02:15;24.30;;;12.80;;
33453;SDS011;39400;49.744;7.012;2022-12-07T03:07:27;28.08;;;15.18;;
33453;SDS011;39400;49.744;7.012;2022-12-07T03:10:07;26.10;;;14.65;;
33453;SDS011;39400;49.744;7.012;2022-12-07T03:15:22;25.38;;;13.93;;
33453;SDS011;39400;49.744;7.012;2022-12-07T03:17:54;28.15;;;13.55;;
33453;SDS011;39400;49.744;7.012;2022-12-07T03:20:25;25.58;;;14.57;;
33453;SDS011;39400;49.744;7.012;2022-12-07T03:22:52;36.90;;;15.25;;
33453;SDS011;39400;49.744;7.012;2022-12-07T03:25:20;27.38;;;14.88;;
33453;SDS011;39400;49.744;7.012;2022-12-07T03:27:49;27.33;;;13.43;;
33453;SDS011;39400;49.744;7.012;2022-12-07T03:30:19;27.80;;;14.60;;
33453;SDS011;39400;49.744;7.012;2022-12-07T03:32:49;25.67;;;12.57;;
33453;SDS011;39400;49.744;7.012;2022-12-07T03:35:27;24.40;;;12.75;;
33453;SDS011;39400;49.744;7.012;2022-12-07T03:37:59;27.25;;;13.57;;
33453;SDS011;39400;49.744;7.012;2022-12-07T03:42:58;21.27;;;12.45;;
33453;SDS011;39400;49.744;7.012;2022-12-07T03:45:27;24.85;;;12.23;;
33453;SDS011;39400;49.744;7.012;2022-12-07T03:48:08;24.70;;;13.57;;
33453;SDS011;39400;49.744;7.012;2022-12-07T03:51:01;25.42;;;13.95;;
33453;SDS011;39400;49.744;7.012;2022-12-07T03:53:39;33.60;;;15.82;;
33453;SDS011;39400;49.744;7.012;2022-12-07T03:56:11;23.52;;;12.45;;
33453;SDS011;39400;49.744;7.012;2022-12-07T03:58:37;23.05;;;12.30;;
33453;SDS011;39400;49.744;7.012;2022-12-07T04:01:05;26.33;;;13.15;;
33453;SDS011;39400;49.744;7.012;2022-12-07T04:03:30;25.42;;;13.18;;
33453;SDS011;39400;49.744;7.012;2022-12-07T04:05:55;23.30;;;11.50;;
33453;SDS011;39400;49.744;7.012;2022-12-07T04:08:22;23.88;;;11.88;;
33453;SDS011;39400;49.744;7.012;2022-12-07T04:10:47;22.80;;;12.02;;
33453;SDS011;39400;49.744;7.012;2022-12-07T04:13:12;22.40;;;11.55;;
33453;SDS011;39400;49.744;7.012;2022-12-07T04:15:38;19.95;;;10.68;;
33453;SDS011;39400;49.744;7.012;2022-12-07T04:18:03;18.35;;;10.15;;
33453;SDS011;39400;49.744;7.012;2022-12-07T04:20:28;21.05;;;11.40;;
33453;SDS011;39400;49.744;7.012;2022-12-07T04:22:54;21.67;;;12.45;;
33453;SDS011;39400;49.744;7.012;2022-12-07T04:25:19;25.30;;;14.35;;
33453;SDS011;39400;49.744;7.012;2022-12-07T04:27:44;22.48;;;12.40;;
33453;SDS011;39400;49.744;7.012;2022-12-07T04:30:10;25.38;;;13.30;;
33453;SDS011;39400;49.744;7.012;2022-12-07T04:32:35;27.38;;;13.70;;
33453;SDS011;39400;49.744;7.012;2022-12-07T04:35:01;24.77;;;12.68;;
33453;SDS011;39400;49.744;7.012;2022-12-07T04:37:26;20.23;;;11.32;;
33453;SDS011;39400;49.744;7.012;2022-12-07T04:39:51;25.23;;;14.23;;
33453;SDS011;39400;49.744;7.012;2022-12-07T04:42:17;23.40;;;12.40;;
33453;SDS011;39400;49.744;7.012;2022-12-07T04:44:42;24.73;;;12.60;;
33453;SDS011;39400;49.744;7.012;2022-12-07T04:47:07;24.90;;;13.27;;
33453;SDS011;39400;49.744;7.012;2022-12-07T04:49:33;24.65;;;11.35;;
33453;SDS011;39400;49.744;7.012;2022-12-07T04:51:58;26.73;;;12.52;;
33453;SDS011;39400;49.744;7.012;2022-12-07T04:54:24;24.77;;;12.95;;
33453;SDS011;39400;49.744;7.012;2022-12-07T04:56:49;26.08;;;13.75;;
33453;SDS011;39400;49.744;7.012;2022-12-07T04:59:15;22.40;;;11.10;;
33453;SDS011;39400;49.744;7.012;2022-12-07T05:01:41;17.05;;;9.65;;
33453;SDS011;39400;49.744;7.012;2022-12-07T05:04:07;23.00;;;12.45;;
33453;SDS011;39400;49.744;7.012;2022-12-07T05:06:33;20.10;;;10.35;;
33453;SDS011;39400;49.744;7.012;2022-12-07T05:08:59;21.83;;;11.23;;
33453;SDS011;39400;49.744;7.012;2022-12-07T05:11:24;19.23;;;10.70;;
33453;SDS011;39400;49.744;7.012;2022-12-07T05:13:49;24.55;;;12.88;;
33453;SDS011;39400;49.744;7.012;2022-12-07T05:16:15;23.45;;;11.73;;
33453;SDS011;39400;49.744;7.012;2022-12-07T05:18:40;23.73;;;12.65;;
33453;SDS011;39400;49.744;7.012;2022-12-07T05:21:05;24.75;;;13.38;;
33453;SDS011;39400;49.744;7.012;2022-12-07T05:23:31;22.60;;;11.25;;
33453;SDS011;39400;49.744;7.012;2022-12-07T05:25:56;29.65;;;15.93;;
33453;SDS011;39400;49.744;7.012;2022-12-07T05:28:21;30.02;;;13.90;;
33453;SDS011;39400;49.744;7.012;2022-12-07T05:30:47;20.65;;;12.05;;
33453;SDS011;39400;49.744;7.012;2022-12-07T05:33:12;26.13;;;13.93;;
33453;SDS011;39400;49.744;7.012;2022-12-07T05:35:37;23.42;;;12.27;;
33453;SDS011;39400;49.744;7.012;2022-12-07T05:38:03;30.67;;;13.90;;
33453;SDS011;39400;49.744;7.012;2022-12-07T05:40:28;25.45;;;14.07;;
33453;SDS011;39400;49.744;7.012;2022-12-07T05:42:53;24.70;;;13.32;;
33453;SDS011;39400;49.744;7.012;2022-12-07T05:45:19;27.50;;;13.25;;
33453;SDS011;39400;49.744;7.012;2022-12-07T05:47:44;27.70;;;14.10;;
33453;SDS011;39400;49.744;7.012;2022-12-07T05:50:09;25.30;;;13.05;;
33453;SDS011;39400;49.744;7.012;2022-12-07T05:52:34;23.60;;;14.40;;
33453;SDS011;39400;49.744;7.012;2022-12-07T05:55:00;24.70;;;13.23;;
33453;SDS011;39400;49.744;7.012;2022-12-07T05:57:25;27.77;;;13.70;;
33453;SDS011;39400;49.744;7.012;2022-12-07T05:59:50;24.75;;;13.35;;
33453;SDS011;39400;49.744;7.012;2022-12-07T06:02:16;25.80;;;14.60;;
33453;SDS011;39400;49.744;7.012;2022-12-07T06:04:43;29.95;;;14.98;;
33453;SDS011;39400;49.744;7.012;2022-12-07T06:07:10;30.13;;;14.05;;
33453;SDS011;39400;49.744;7.012;2022-12-07T06:09:36;35.60;;;15.30;;
33453;SDS011;39400;49.744;7.012;2022-12-07T06:12:02;25.13;;;13.10;;
33453;SDS011;39400;49.744;7.012;2022-12-07T06:14:28;27.08;;;15.15;;
33453;SDS011;39400;49.744;7.012;2022-12-07T06:16:54;35.95;;;13.00;;
33453;SDS011;39400;49.744;7.012;2022-12-07T06:19:19;27.27;;;13.88;;
33453;SDS011;39400;49.744;7.012;2022-12-07T06:21:44;27.27;;;14.45;;
33453;SDS011;39400;49.744;7.012;2022-12-07T06:24:11;28.77;;;15.77;;
33453;SDS011;39400;49.744;7.012;2022-12-07T06:26:37;29.83;;;14.07;;
33453;SDS011;39400;49.744;7.012;2022-12-07T06:29:03;42.60;;;18.75;;
33453;SDS011;39400;49.744;7.012;2022-12-07T06:31:28;50.03;;;20.00;;
33453;SDS011;39400;49.744;7.012;2022-12-07T06:33:57;36.53;;;18.88;;
33453;SDS011;39400;49.744;7.012;2022-12-07T06:36:27;41.60;;;16.65;;
33453;SDS011;39400;49.744;7.012;2022-12-07T06:38:52;36.45;;;17.00;;
33453;SDS011;39400;49.744;7.012;2022-12-07T06:41:19;31.35;;;15.73;;
33453;SDS011;39400;49.744;7.012;2022-12-07T06:43:44;34.42;;;14.98;;
33453;SDS011;39400;49.744;7.012;2022-12-07T06:46:10;31.98;;;15.63;;
33453;SDS011;39400;49.744;7.012;2022-12-07T06:48:35;35.42;;;16.02;;
33453;SDS011;39400;49.744;7.012;2022-12-07T06:51:00;28.85;;;15.10;;
33453;SDS011;39400;49.744;7.012;2022-12-07T06:53:25;37.50;;;23.75;;
33453;SDS011;39400;49.744;7.012;2022-12-07T06:55:51;37.67;;;15.30;;
33453;SDS011;39400;49.744;7.012;2022-12-07T06:58:16;26.00;;;12.88;;
33453;SDS011;39400;49.744;7.012;2022-12-07T07:00:43;27.25;;;13.57;;
33453;SDS011;39400;49.744;7.012;2022-12-07T07:03:09;41.90;;;16.70;;
33453;SDS011;39400;49.744;7.012;2022-12-07T07:05:34;27.50;;;14.10;;
33453;SDS011;39400;49.744;7.012;2022-12-07T07:08:00;31.85;;;15.20;;
33453;SDS011;39400;49.744;7.012;2022-12-07T07:10:25;36.50;;;17.17;;
33453;SDS011;39400;49.744;7.012;2022-12-07T07:12:51;34.30;;;16.10;;
33453;SDS011;39400;49.744;7.012;2022-12-07T07:15:16;28.10;;;15.63;;
33453;SDS011;39400;49.744;7.012;2022-12-07T07:17:42;30.92;;;15.55;;
33453;SDS011;39400;49.744;7.012;2022-12-07T07:20:07;26.58;;;14.73;;
33453;SDS011;39400;49.744;7.012;2022-12-07T07:22:35;32.88;;;17.08;;
33453;SDS011;39400;49.744;7.012;2022-12-07T07:25:01;28.67;;;15.95;;
33453;SDS011;39400;49.744;7.012;2022-12-07T07:27:26;28.65;;;14.38;;
33453;SDS011;39400;49.744;7.012;2022-12-07T07:29:51;33.03;;;18.15;;
33453;SDS011;39400;49.744;7.012;2022-12-07T07:32:17;30.65;;;15.40;;
33453;SDS011;39400;49.744;7.012;2022-12-07T07:34:42;28.20;;;14.80;;
33453;SDS011;39400;49.744;7.012;2022-12-07T07:37:07;33.67;;;14.80;;
33453;SDS011;39400;49.744;7.012;2022-12-07T07:39:33;29.13;;;14.98;;
33453;SDS011;39400;49.744;7.012;2022-12-07T07:41:58;27.92;;;14.80;;
33453;SDS011;39400;49.744;7.012;2022-12-07T07:44:25;32.33;;;15.70;;
33453;SDS011;39400;49.744;7.012;2022-12-07T07:46:51;28.33;;;13.65;;
33453;SDS011;39400;49.744;7.012;2022-12-07T07:49:16;26.63;;;14.00;;
33453;SDS011;39400;49.744;7.012;2022-12-07T07:51:41;23.88;;;12.65;;
33453;SDS011;39400;49.744;7.012;2022-12-07T07:54:06;24.23;;;12.73;;
33453;SDS011;39400;49.744;7.012;2022-12-07T07:56:32;20.27;;;10.80;;
33453;SDS011;39400;49.744;7.012;2022-12-07T07:58:57;20.33;;;12.10;;
33453;SDS011;39400;49.744;7.012;2022-12-07T08:01:22;18.88;;;10.38;;
33453;SDS011;39400;49.744;7.012;2022-12-07T08:03:48;31.73;;;13.82;;
33453;SDS011;39400;49.744;7.012;2022-12-07T08:06:13;24.55;;;12.93;;
33453;SDS011;39400;49.744;7.012;2022-12-07T08:08:39;21.20;;;10.73;;
33453;SDS011;39400;49.744;7.012;2022-12-07T08:11:05;22.23;;;11.90;;
33453;SDS011;39400;49.744;7.012;2022-12-07T08:13:31;19.00;;;10.98;;
33453;SDS011;39400;49.744;7.012;2022-12-07T08:15:56;26.60;;;12.45;;
33453;SDS011;39400;49.744;7.012;2022-12-07T08:18:21;23.92;;;12.43;;
33453;SDS011;39400;49.744;7.012;2022-12-07T08:20:47;22.63;;;12.32;;
33453;SDS011;39400;49.744;7.012;2022-12-07T08:23:12;22.20;;;12.00;;
33453;SDS011;39400;49.744;7.012;2022-12-07T08:25:38;33.78;;;17.27;;
33453;SDS011;39400;49.744;7.012;2022-12-07T08:28:04;23.60;;;12.68;;
33453;SDS011;39400;49.744;7.012;2022-12-07T08:30:30;27.38;;;13.82;;
33453;SDS011;39400;49.744;7.012;2022-12-07T08:32:55;26.50;;;13.77;;
33453;SDS011;39400;49.744;7.012;2022-12-07T08:35:21;20.52;;;11.30;;
33453;SDS011;39400;49.744;7.012;2022-12-07T08:37:47;30.15;;;15.55;;
33453;SDS011;39400;49.744;7.012;2022-12-07T08:40:12;20.27;;;12.27;;
33453;SDS011;39400;49.744;7.012;2022-12-07T08:42:38;18.17;;;9.65;;
33453;SDS011;39400;49.744;7.012;2022-12-07T08:45:04;20.42;;;11.10;;
33453;SDS011;39400;49.744;7.012;2022-12-07T08:47:31;20.65;;;10.82;;
33453;SDS011;39400;49.744;7.012;2022-12-07T08:49:57;19.30;;;9.85;;
33453;SDS011;39400;49.744;7.012;2022-12-07T08:52:22;19.70;;;11.27;;
33453;SDS011;39400;49.744;7.012;2022-12-07T08:54:48;20.10;;;10.95;;
33453;SDS011;39400;49.744;7.012;2022-12-07T08:57:13;19.40;;;10.65;;
33453;SDS011;39400;49.744;7.012;2022-12-07T08:59:39;20.63;;;12.25;;
33453;SDS011;39400;49.744;7.012;2022-12-07T09:02:05;22.23;;;10.50;;
33453;SDS011;39400;49.744;7.012;2022-12-07T09:04:31;18.25;;;9.88;;
33453;SDS011;39400;49.744;7.012;2022-12-07T09:06:56;15.98;;;9.15;;
33453;SDS011;39400;49.744;7.012;2022-12-07T09:09:22;15.30;;;9.43;;
33453;SDS011;39400;49.744;7.012;2022-12-07T09:11:47;18.52;;;9.18;;
33453;SDS011;39400;49.744;7.012;2022-12-07T09:14:13;18.52;;;9.60;;
33453;SDS011;39400;49.744;7.012;2022-12-07T09:16:38;20.15;;;9.93;;
33453;SDS011;39400;49.744;7.012;2022-12-07T09:19:04;18.83;;;9.93;;
33453;SDS011;39400;49.744;7.012;2022-12-07T09:21:29;19.38;;;10.35;;
33453;SDS011;39400;49.744;7.012;2022-12-07T09:23:55;18.63;;;10.23;;
33453;SDS011;39400;49.744;7.012;2022-12-07T09:26:20;26.40;;;11.20;;
33453;SDS011;39400;49.744;7.012;2022-12-07T09:28:45;24.02;;;10.80;;
33453;SDS011;39400;49.744;7.012;2022-12-07T09:31:11;20.90;;;10.38;;
33453;SDS011;39400;49.744;7.012;2022-12-07T09:33:36;24.48;;;11.00;;
33453;SDS011;39400;49.744;7.012;2022-12-07T09:36:02;26.50;;;10.70;;
33453;SDS011;39400;49.744;7.012;2022-12-07T09:38:28;30.17;;;13.43;;
33453;SDS011;39400;49.744;7.012;2022-12-07T09:40:53;31.10;;;13.80;;
33453;SDS011;39400;49.744;7.012;2022-12-07T09:43:20;30.65;;;13.15;;
33453;SDS011;39400;49.744;7.012;2022-12-07T09:45:48;41.63;;;16.33;;
33453;SDS011;39400;49.744;7.012;2022-12-07T09:48:20;26.40;;;14.40;;
33453;SDS011;39400;49.744;7.012;2022-12-07T09:50:48;18.85;;;11.48;;
33453;SDS011;39400;49.744;7.012;2022-12-07T09:53:25;17.83;;;9.52;;
33453;SDS011;39400;49.744;7.012;2022-12-07T09:55:59;16.85;;;11.30;;
33453;SDS011;39400;49.744;7.012;2022-12-07T09:58:27;18.20;;;9.10;;
33453;SDS011;39400;49.744;7.012;2022-12-07T10:01:05;16.02;;;8.00;;
33453;SDS011;39400;49.744;7.012;2022-12-07T10:03:38;18.15;;;10.10;;
33453;SDS011;39400;49.744;7.012;2022-12-07T10:06:05;23.20;;;12.38;;
33453;SDS011;39400;49.744;7.012;2022-12-07T10:08:32;22.92;;;10.73;;
33453;SDS011;39400;49.744;7.012;2022-12-07T10:10:58;26.13;;;10.85;;
33453;SDS011;39400;49.744;7.012;2022-12-07T10:13:42;20.08;;;10.98;;
33453;SDS011;39400;49.744;7.012;2022-12-07T10:22:04;27.35;;;13.32;;
33453;SDS011;39400;49.744;7.012;2022-12-07T10:24:38;22.23;;;11.60;;
33453;SDS011;39400;49.744;7.012;2022-12-07T10:27:04;19.73;;;12.20;;
33453;SDS011;39400;49.744;7.012;2022-12-07T10:32:04;14.40;;;7.72;;
33453;SDS011;39400;49.744;7.012;2022-12-07T10:34:50;18.85;;;11.40;;
33453;SDS011;39400;49.744;7.012;2022-12-07T10:37:40;17.85;;;11.45;;
33453;SDS011;39400;49.744;7.012;2022-12-07T10:40:10;16.33;;;9.95;;
33453;SDS011;39400;49.744;7.012;2022-12-07T10:43:00;18.65;;;9.75;;
33453;SDS011;39400;49.744;7.012;2022-12-07T10:45:26;12.77;;;7.80;;
33453;SDS011;39400;49.744;7.012;2022-12-07T10:48:14;17.05;;;9.55;;
33453;SDS011;39400;49.744;7.012;2022-12-07T10:50:52;19.52;;;10.07;;
33453;SDS011;39400;49.744;7.012;2022-12-07T10:53:43;16.73;;;9.55;;
33453;SDS011;39400;49.744;7.012;2022-12-07T10:59:45;17.92;;;10.43;;
33453;SDS011;39400;49.744;7.012;2022-12-07T11:02:24;25.23;;;12.30;;
33453;SDS011;39400;49.744;7.012;2022-12-07T11:11:08;17.13;;;9.00;;
33453;SDS011;39400;49.744;7.012;2022-12-07T11:14:01;15.30;;;6.65;;
33453;SDS011;39400;49.744;7.012;2022-12-07T11:19:16;10.82;;;5.18;;
33453;SDS011;39400;49.744;7.012;2022-12-07T11:22:09;46.08;;;17.65;;
33453;SDS011;39400;49.744;7.012;2022-12-07T11:24:56;27.75;;;11.70;;
33453;SDS011;39400;49.744;7.012;2022-12-07T11:33:02;13.15;;;6.93;;
33453;SDS011;39400;49.744;7.012;2022-12-07T11:38:39;16.90;;;9.27;;
33453;SDS011;39400;49.744;7.012;2022-12-07T11:41:10;10.32;;;6.75;;
33453;SDS011;39400;49.744;7.012;2022-12-07T11:43:35;12.15;;;8.00;;
33453;SDS011;39400;49.744;7.012;2022-12-07T11:46:06;26.63;;;15.32;;
33453;SDS011;39400;49.744;7.012;2022-12-07T11:48:44;17.08;;;12.32;;
33453;SDS011;39400;49.744;7.012;2022-12-07T11:51:15;11.93;;;7.65;;
33453;SDS011;39400;49.744;7.012;2022-12-07T11:53:54;21.53;;;6.80;;
33453;SDS011;39400;49.744;7.012;2022-12-07T11:56:24;8.80;;;4.85;;
33453;SDS011;39400;49.744;7.012;2022-12-07T12:06:24;10.50;;;6.13;;
33453;SDS011;39400;49.744;7.012;2022-12-07T12:09:12;9.25;;;5.38;;
33453;SDS011;39400;49.744;7.012;2022-12-07T12:22:21;20.42;;;10.50;;
33453;SDS011;39400;49.744;7.012;2022-12-07T12:24:53;12.50;;;5.60;;
33453;SDS011;39400;49.744;7.012;2022-12-07T12:27:26;12.52;;;5.43;;
33453;SDS011;39400;49.744;7.012;2022-12-07T12:29:56;12.50;;;7.65;;
33453;SDS011;39400;49.744;7.012;2022-12-07T12:32:43;9.40;;;5.15;;
33453;SDS011;39400;49.744;7.012;2022-12-07T12:37:51;9.73;;;6.20;;
33453;SDS011;39400;49.744;7.012;2022-12-07T12:42:49;13.73;;;6.75;;
33453;SDS011;39400;49.744;7.012;2022-12-07T12:45:23;8.40;;;5.82;;
33453;SDS011;39400;49.744;7.012;2022-12-07T12:48:00;12.02;;;5.25;;
33453;SDS011;39400;49.744;7.012;2022-12-07T12:50:27;9.20;;;6.10;;
33453;SDS011;39400;49.744;7.012;2022-12-07T12:53:01;10.52;;;5.95;;
33453;SDS011;39400;49.744;7.012;2022-12-07T13:00:46;10.02;;;4.80;;
33453;SDS011;39400;49.744;7.012;2022-12-07T13:03:26;12.90;;;5.43;;
33453;SDS011;39400;49.744;7.012;2022-12-07T13:08:57;12.98;;;6.90;;
33453;SDS011;39400;49.744;7.012;2022-12-07T13:20:00;13.90;;;5.97;;
33453;SDS011;39400;49.744;7.012;2022-12-07T13:24:57;8.75;;;5.18;;
33453;SDS011;39400;49.744;7.012;2022-12-07T13:27:25;14.38;;;6.97;;
33453;SDS011;39400;49.744;7.012;2022-12-07T13:29:51;19.92;;;9.93;;
33453;SDS011;39400;49.744;7.012;2022-12-07T13:32:23;25.00;;;10.13;;
33453;SDS011;39400;49.744;7.012;2022-12-07T13:34:50;18.95;;;9.10;;
33453;SDS011;39400;49.744;7.012;2022-12-07T13:37:18;23.45;;;11.07;;
33453;SDS011;39400;49.744;7.012;2022-12-07T13:39:56;17.35;;;10.80;;
33453;SDS011;39400;49.744;7.012;2022-12-07T13:42:27;15.80;;;9.85;;
33453;SDS011;39400;49.744;7.012;2022-12-07T13:44:55;17.77;;;12.75;;
33453;SDS011;39400;49.744;7.012;2022-12-07T13:47:41;17.45;;;9.75;;
33453;SDS011;39400;49.744;7.012;2022-12-07T13:50:25;18.23;;;7.90;;
33453;SDS011;39400;49.744;7.012;2022-12-07T13:52:56;17.40;;;8.18;;
33453;SDS011;39400;49.744;7.012;2022-12-07T13:55:23;10.90;;;4.63;;
33453;SDS011;39400;49.744;7.012;2022-12-07T13:57:50;11.45;;;5.95;;
33453;SDS011;39400;49.744;7.012;2022-12-07T14:00:18;11.43;;;4.72;;
33453;SDS011;39400;49.744;7.012;2022-12-07T14:02:55;7.47;;;4.60;;
33453;SDS011;39400;49.744;7.012;2022-12-07T14:05:25;7.28;;;4.93;;
33453;SDS011;39400;49.744;7.012;2022-12-07T14:10:42;12.05;;;6.45;;
33453;SDS011;39400;49.744;7.012;2022-12-07T14:13:29;14.70;;;6.22;;
33453;SDS011;39400;49.744;7.012;2022-12-07T14:15:56;13.75;;;7.35;;
33453;SDS011;39400;49.744;7.012;2022-12-07T14:18:31;23.02;;;11.93;;
33453;SDS011;39400;49.744;7.012;2022-12-07T14:23:35;16.92;;;7.13;;
33453;SDS011;39400;49.744;7.012;2022-12-07T14:26:11;17.58;;;7.85;;
33453;SDS011;39400;49.744;7.012;2022-12-07T14:28:37;19.65;;;8.88;;
33453;SDS011;39400;49.744;7.012;2022-12-07T14:31:03;36.63;;;15.48;;
33453;SDS011;39400;49.744;7.012;2022-12-07T14:33:34;11.98;;;6.95;;
33453;SDS011;39400;49.744;7.012;2022-12-07T14:35:59;12.95;;;5.90;;
33453;SDS011;39400;49.744;7.012;2022-12-07T14:38:25;12.10;;;5.82;;
33453;SDS011;39400;49.744;7.012;2022-12-07T14:40:51;10.75;;;5.72;;
33453;SDS011;39400;49.744;7.012;2022-12-07T14:43:18;8.27;;;5.53;;
33453;SDS011;39400;49.744;7.012;2022-12-07T14:45:44;7.50;;;5.63;;
33453;SDS011;39400;49.744;7.012;2022-12-07T14:48:10;9.27;;;7.95;;
33453;SDS011;39400;49.744;7.012;2022-12-07T14:50:39;52.95;;;13.73;;
33453;SDS011;39400;49.744;7.012;2022-12-07T14:53:18;48.33;;;6.68;;
33453;SDS011;39400;49.744;7.012;2022-12-07T14:55:51;22.58;;;9.32;;
33453;SDS011;39400;49.744;7.012;2022-12-07T14:58:16;61.15;;;5.53;;
33453;SDS011;39400;49.744;7.012;2022-12-07T15:00:42;15.68;;;4.35;;
33453;SDS011;39400;49.744;7.012;2022-12-07T15:03:08;26.33;;;4.68;;
33453;SDS011;39400;49.744;7.012;2022-12-07T15:05:34;8.45;;;4.35;;
33453;SDS011;39400;49.744;7.012;2022-12-07T15:08:00;17.75;;;4.50;;
33453;SDS011;39400;49.744;7.012;2022-12-07T15:10:27;21.13;;;5.22;;
33453;SDS011;39400;49.744;7.012;2022-12-07T15:12:54;21.60;;;5.38;;
33453;SDS011;39400;49.744;7.012;2022-12-07T15:15:19;11.73;;;3.63;;
33453;SDS011;39400;49.744;7.012;2022-12-07T15:17:45;7.60;;;3.95;;
33453;SDS011;39400;49.744;7.012;2022-12-07T15:20:12;6.97;;;3.15;;
33453;SDS011;39400;49.744;7.012;2022-12-07T15:22:39;14.10;;;5.38;;
33453;SDS011;39400;49.744;7.012;2022-12-07T15:25:04;10.75;;;4.68;;
33453;SDS011;39400;49.744;7.012;2022-12-07T15:27:30;8.48;;;4.20;;
33453;SDS011;39400;49.744;7.012;2022-12-07T15:29:56;7.95;;;3.75;;
33453;SDS011;39400;49.744;7.012;2022-12-07T15:32:21;9.43;;;3.97;;
33453;SDS011;39400;49.744;7.012;2022-12-07T15:34:46;20.90;;;10.43;;
33453;SDS011;39400;49.744;7.012;2022-12-07T15:37:12;33.83;;;16.48;;
33453;SDS011;39400;49.744;7.012;2022-12-07T15:39:37;33.42;;;13.02;;
33453;SDS011;39400;49.744;7.012;2022-12-07T15:42:02;24.00;;;10.40;;
33453;SDS011;39400;49.744;7.012;2022-12-07T15:44:28;9.02;;;4.85;;
33453;SDS011;39400;49.744;7.012;2022-12-07T15:46:53;23.33;;;10.80;;
33453;SDS011;39400;49.744;7.012;2022-12-07T15:49:19;15.85;;;7.45;;
33453;SDS011;39400;49.744;7.012;2022-12-07T15:51:44;29.05;;;13.00;;
33453;SDS011;39400;49.744;7.012;2022-12-07T15:54:16;20.02;;;10.18;;
33453;SDS011;39400;49.744;7.012;2022-12-07T15:56:44;19.13;;;7.38;;
33453;SDS011;39400;49.744;7.012;2022-12-07T15:59:10;13.75;;;6.13;;
33453;SDS011;39400;49.744;7.012;2022-12-07T16:01:35;10.40;;;3.72;;
33453;SDS011;39400;49.744;7.012;2022-12-07T16:04:00;7.18;;;3.42;;
33453;SDS011;39400;49.744;7.012;2022-12-07T16:06:26;7.53;;;3.08;;
33453;SDS011;39400;49.744;7.012;2022-12-07T16:08:51;8.25;;;3.30;;
33453;SDS011;39400;49.744;7.012;2022-12-07T16:11:16;7.93;;;2.95;;
33453;SDS011;39400;49.744;7.012;2022-12-07T16:13:42;9.20;;;4.18;;
33453;SDS011;39400;49.744;7.012;2022-12-07T16:16:10;9.27;;;3.97;;
33453;SDS011;39400;49.744;7.012;2022-12-07T16:18:37;6.32;;;2.85;;
33453;SDS011;39400;49.744;7.012;2022-12-07T16:21:02;7.97;;;2.92;;